createdAt,value
2023-04-25T00:02:16.101Z,100057.16
2023-04-25T00:04:43.456Z,100051.72
2023-04-25T00:07:10.374Z,100045.41
2023-04-25T00:09:37.001Z,100048.06
2023-04-25T00:12:03.600Z,100053.59
2023-04-25T00:14:30.687Z,100041.00
2023-04-25T00:16:57.223Z,100042.53
2023-04-25T00:19:23.773Z,100047.66
2023-04-25T00:21:50.964Z,100051.91
2023-04-25T00:24:17.514Z,100050.34
2023-04-25T00:26:44.023Z,100049.22
2023-04-25T00:29:10.849Z,100047.88
2023-04-25T00:31:39.283Z,100043.94
2023-04-25T00:34:07.370Z,100047.56
2023-04-25T00:36:33.912Z,100045.22
2023-04-25T00:39:00.694Z,100040.47
2023-04-25T00:41:28.015Z,100036.09
2023-04-25T00:43:55.790Z,100041.22
2023-04-25T00:46:22.558Z,100042.19
2023-04-25T00:48:49.169Z,100045.56
2023-04-25T00:51:18.060Z,100034.44
2023-04-25T00:53:45.608Z,100040.63
2023-04-25T00:56:12.189Z,100034.66
2023-04-25T00:58:39.491Z,100038.47
2023-04-25T01:01:07.907Z,100034.84
2023-04-25T01:03:36.685Z,100036.97
2023-04-25T01:06:03.969Z,100034.75
2023-04-25T01:08:31.338Z,100033.06
2023-04-25T01:10:57.849Z,100026.53
2023-04-25T01:13:24.389Z,100026.97
2023-04-25T01:15:51.341Z,100015.63
2023-04-25T01:18:17.988Z,100022.91
2023-04-25T01:20:44.944Z,100036.94
2023-04-25T01:23:11.648Z,100021.53
2023-04-25T01:25:38.599Z,100019.78
2023-04-25T01:28:05.258Z,100019.78
2023-04-25T01:30:32.639Z,100022.19
2023-04-25T01:33:00.033Z,100017.16
2023-04-25T01:35:28.945Z,100010.84
2023-04-25T01:37:55.669Z,100016.19
2023-04-25T01:40:23.526Z,100015.97
2023-04-25T01:42:50.719Z,100011.63
2023-04-25T01:45:18.043Z,100018.97
2023-04-25T01:47:47.940Z,100015.91
2023-04-25T01:50:14.541Z,100019.44
2023-04-25T01:52:41.161Z,100020.00
2023-04-25T01:55:08.742Z,100020.91
2023-04-25T01:57:37.729Z,100021.13
2023-04-25T02:00:07.786Z,100022.97
2023-04-25T02:02:40.589Z,100020.41
2023-04-25T02:05:29.968Z,100012.03
2023-04-25T02:07:56.643Z,100018.09
2023-04-25T02:10:25.608Z,100023.31
2023-04-25T02:13:09.045Z,100019.09
2023-04-25T02:15:55.929Z,100012.31
2023-04-25T02:18:22.587Z,100020.91
2023-04-25T02:20:49.155Z,100018.53
2023-04-25T02:23:20.157Z,100018.94
2023-04-25T02:25:46.787Z,100016.00
2023-04-25T02:28:14.113Z,100007.28
2023-04-25T02:30:40.624Z,100012.75
2023-04-25T02:33:07.209Z,100012.44
2023-04-25T02:35:33.741Z,100016.38
2023-04-25T02:38:00.459Z,100016.69
2023-04-25T02:40:27.054Z,100020.25
2023-04-25T02:42:54.588Z,100022.69
2023-04-25T02:45:21.103Z,100014.16
2023-04-25T02:47:47.676Z,100012.31
2023-04-25T02:50:14.217Z,100014.81
2023-04-25T02:52:41.130Z,100016.66
2023-04-25T02:55:15.629Z,100019.53
2023-04-25T02:57:43.555Z,100016.28
2023-04-25T03:00:15.328Z,100015.44
2023-04-25T03:02:41.990Z,100005.28
2023-04-25T03:05:08.646Z,100015.44
2023-04-25T03:07:35.815Z,100012.13
2023-04-25T03:10:02.487Z,100006.66
2023-04-25T03:12:31.046Z,100002.09
2023-04-25T03:14:57.577Z,100008.69
2023-04-25T03:17:24.213Z,100004.50
2023-04-25T03:19:50.856Z,100016.13
2023-04-25T03:22:17.615Z,100015.78
2023-04-25T03:24:44.231Z,100011.03
2023-04-25T03:27:10.882Z,100010.75
2023-04-25T03:29:37.667Z,100012.38
2023-04-25T03:32:05.438Z,100021.72
2023-04-25T03:34:32.067Z,100022.44
2023-04-25T03:36:58.573Z,100011.84
2023-04-25T03:39:25.129Z,100027.34
2023-04-25T03:41:53.077Z,100025.19
2023-04-25T03:44:20.677Z,100016.53
2023-04-25T03:46:47.660Z,100026.81
2023-04-25T03:49:15.969Z,100025.91
2023-04-25T03:51:59.843Z,100023.53
2023-04-25T03:54:26.525Z,100024.22
2023-04-25T03:57:04.819Z,100028.88
2023-04-25T03:59:34.437Z,100024.91
2023-04-25T04:02:01.094Z,100036.25
2023-04-25T04:04:28.942Z,100030.94
2023-04-25T04:06:56.416Z,100033.69
2023-04-25T04:09:26.868Z,100031.69
2023-04-25T04:11:54.422Z,100044.28
2023-04-25T04:14:20.941Z,100040.69
2023-04-25T04:16:49.340Z,100048.78
2023-04-25T04:19:15.932Z,100044.56
2023-04-25T04:21:47.999Z,100050.09
2023-04-25T04:24:15.947Z,100052.72
2023-04-25T04:26:53.125Z,100047.53
2023-04-25T04:29:46.271Z,100051.75
2023-04-25T04:32:24.319Z,100049.22
2023-04-25T04:34:50.911Z,100054.94
2023-04-25T04:37:19.479Z,100057.09
2023-04-25T04:39:46.601Z,100059.38
2023-04-25T04:42:33.571Z,100056.19
2023-04-25T04:45:15.182Z,100061.66
2023-04-25T04:48:00.381Z,100067.91
2023-04-25T04:50:47.142Z,100065.84
2023-04-25T04:53:26.206Z,100069.28
2023-04-25T04:56:11.246Z,100066.94
2023-04-25T04:58:54.542Z,100066.28
2023-04-25T05:01:41.439Z,100064.22
2023-04-25T05:04:31.386Z,100070.44
2023-04-25T05:07:04.574Z,100066.81
2023-04-25T05:09:43.200Z,100064.31
2023-04-25T05:12:20.053Z,100076.25
2023-04-25T05:14:54.687Z,100075.03
2023-04-25T05:17:33.781Z,100070.13
2023-04-25T05:20:16.417Z,100078.13
2023-04-25T05:23:01.701Z,100090.22
2023-04-25T05:25:41.416Z,100078.72
2023-04-25T05:28:21.725Z,100081.81
2023-04-25T05:31:00.327Z,100088.69
2023-04-25T05:33:30.341Z,100072.94
2023-04-25T05:35:57.015Z,100071.06
2023-04-25T05:38:25.834Z,100077.63
2023-04-25T05:41:11.508Z,100075.97
2023-04-25T05:43:58.670Z,100082.53
2023-04-25T05:46:40.946Z,100082.06
2023-04-25T05:49:13.512Z,100084.63
2023-04-25T05:51:57.868Z,100083.72
2023-04-25T05:54:43.100Z,100085.75
2023-04-25T05:57:09.640Z,100100.72
2023-04-25T05:59:36.833Z,100098.75
2023-04-25T06:02:03.495Z,100105.88
2023-04-25T06:04:33.395Z,100095.59
2023-04-25T06:07:01.329Z,100104.59
2023-04-25T06:09:27.887Z,100108.13
2023-04-25T06:11:54.526Z,100107.66
2023-04-25T06:14:21.164Z,100103.34
2023-04-25T06:16:50.081Z,100105.63
2023-04-25T06:19:16.628Z,100108.28
2023-04-25T06:21:44.708Z,100112.78
2023-04-25T06:24:11.378Z,100112.28
2023-04-25T06:26:37.951Z,100121.13
2023-04-25T06:29:04.873Z,100119.22
2023-04-25T06:31:33.564Z,100120.00
2023-04-25T06:34:00.504Z,100112.38
2023-04-25T06:36:29.151Z,100106.19
2023-04-25T06:39:01.982Z,100100.69
2023-04-25T06:41:28.547Z,100118.66
2023-04-25T06:43:59.796Z,100113.88
2023-04-25T06:46:50.904Z,100113.00
2023-04-25T06:49:17.520Z,100120.59
2023-04-25T06:51:44.242Z,100128.00
2023-04-25T06:54:10.901Z,100129.22
2023-04-25T06:56:49.853Z,100127.94
2023-04-25T06:59:16.523Z,100123.66
2023-04-25T07:01:45.537Z,100131.78
2023-04-25T07:04:16.975Z,100127.38
2023-04-25T07:06:50.317Z,100133.19
2023-04-25T07:09:20.398Z,100142.25
2023-04-25T07:11:48.365Z,100143.25
2023-04-25T07:14:16.017Z,100143.78
2023-04-25T07:16:42.913Z,100148.47
2023-04-25T07:19:10.598Z,100143.78
2023-04-25T07:21:38.486Z,100149.59
2023-04-25T07:24:06.504Z,100160.31
2023-04-25T07:26:36.683Z,100157.09
2023-04-25T07:29:23.765Z,100162.09
2023-04-25T07:31:50.810Z,100167.72
2023-04-25T07:34:17.347Z,100164.88
2023-04-25T07:36:44.643Z,100173.81
2023-04-25T07:39:11.837Z,100168.06
2023-04-25T07:41:38.611Z,100177.31
2023-04-25T07:44:06.087Z,100175.78
2023-04-25T07:46:34.830Z,100179.97
2023-04-25T07:49:01.528Z,100176.13
2023-04-25T07:51:28.906Z,100178.28
2023-04-25T07:53:59.091Z,100187.53
2023-04-25T07:56:25.742Z,100194.63
2023-04-25T07:58:53.388Z,100187.94
2023-04-25T08:01:22.581Z,100193.31
2023-04-25T08:04:01.954Z,100194.72
2023-04-25T08:06:44.379Z,100196.78
2023-04-25T08:09:18.784Z,100198.47
2023-04-25T08:11:45.354Z,100198.09
2023-04-25T08:14:15.073Z,100201.50
2023-04-25T08:16:43.832Z,100205.84
2023-04-25T08:19:11.981Z,100212.78
2023-04-25T08:21:38.827Z,100199.94
2023-04-25T08:24:09.621Z,100208.50
2023-04-25T08:26:39.926Z,100210.84
2023-04-25T08:29:07.652Z,100216.31
2023-04-25T08:31:36.550Z,100212.75
2023-04-25T08:34:04.607Z,100224.91
2023-04-25T08:36:45.849Z,100226.50
2023-04-25T08:39:23.378Z,100228.44
2023-04-25T08:42:15.766Z,100232.28
2023-04-25T08:44:42.358Z,100235.25
2023-04-25T08:47:09.298Z,100240.97
2023-04-25T08:49:46.215Z,100245.50
2023-04-25T08:52:14.213Z,100244.41
2023-04-25T08:54:44.579Z,100245.94
2023-04-25T08:57:12.350Z,100253.50
2023-04-25T08:59:41.513Z,100251.00
2023-04-25T09:02:10.230Z,100250.56
2023-04-25T09:04:36.882Z,100256.13
2023-04-25T09:07:03.580Z,100251.84
2023-04-25T09:09:30.408Z,100245.69
2023-04-25T09:11:57.149Z,100249.44
2023-04-25T09:14:26.904Z,100261.38
2023-04-25T09:17:04.486Z,100264.91
2023-04-25T09:19:52.707Z,100266.38
2023-04-25T09:22:26.865Z,100265.03
2023-04-25T09:24:53.388Z,100269.72
2023-04-25T09:27:27.912Z,100272.06
2023-04-25T09:30:13.067Z,100276.88
2023-04-25T09:32:57.883Z,100284.19
2023-04-25T09:35:27.024Z,100269.75
2023-04-25T09:37:55.066Z,100282.91
2023-04-25T09:40:50.452Z,100288.66
2023-04-25T09:43:25.797Z,100289.00
2023-04-25T09:45:55.275Z,100278.59
2023-04-25T09:48:23.324Z,100290.84
2023-04-25T09:51:06.371Z,100284.00
2023-04-25T09:53:53.225Z,100287.63
2023-04-25T09:56:42.892Z,100292.44
2023-04-25T09:59:11.038Z,100301.50
2023-04-25T10:01:41.366Z,100293.25
2023-04-25T10:04:13.268Z,100286.47
2023-04-25T10:06:53.344Z,100291.97
2023-04-25T10:09:21.769Z,100294.13
2023-04-25T10:11:51.513Z,100295.72
2023-04-25T10:14:18.163Z,100294.78
2023-04-25T10:16:44.902Z,100303.94
2023-04-25T10:19:12.052Z,100305.47
2023-04-25T10:21:47.682Z,100297.94
2023-04-25T10:24:14.345Z,100305.78
2023-04-25T10:26:41.279Z,100307.59
2023-04-25T10:29:07.880Z,100305.97
2023-04-25T10:31:35.404Z,100297.97
2023-04-25T10:34:02.762Z,100305.97
2023-04-25T10:36:32.941Z,100302.50
2023-04-25T10:39:10.235Z,100306.16
2023-04-25T10:41:54.432Z,100314.13
2023-04-25T10:44:20.978Z,100315.63
2023-04-25T10:46:47.993Z,100330.94
2023-04-25T10:49:32.999Z,100327.06
2023-04-25T10:52:25.885Z,100333.09
2023-04-25T10:54:54.515Z,100323.81
2023-04-25T10:57:32.898Z,100332.00
2023-04-25T11:00:06.876Z,100328.84
2023-04-25T11:02:38.202Z,100327.38
2023-04-25T11:05:05.333Z,100334.34
2023-04-25T11:10:45.237Z,100337.34
2023-04-25T11:13:11.817Z,100351.00
2023-04-25T11:15:38.361Z,100347.09
2023-04-25T11:18:05.013Z,100360.25
2023-04-25T11:20:31.807Z,100352.81
2023-04-25T11:23:00.771Z,100350.75
2023-04-25T11:25:27.382Z,100364.25
2023-04-25T11:27:55.110Z,100373.25
2023-04-25T11:30:22.304Z,100378.13
2023-04-25T11:32:49.112Z,100377.56
2023-04-25T11:35:16.459Z,100379.66
2023-04-25T11:37:43.992Z,100378.72
2023-04-25T11:40:11.404Z,100374.94
2023-04-25T11:42:39.280Z,100382.66
2023-04-25T11:45:07.051Z,100377.00
2023-04-25T11:47:34.336Z,100388.41
2023-04-25T11:50:02.122Z,100391.09
2023-04-25T11:52:45.097Z,100387.53
2023-04-25T11:55:14.896Z,100389.34
2023-04-25T11:57:42.606Z,100392.97
2023-04-25T12:00:16.548Z,100384.06
2023-04-25T12:02:46.804Z,100398.38
2023-04-25T12:05:30.252Z,100395.50
2023-04-25T12:07:58.433Z,100392.38
2023-04-25T12:10:26.654Z,100394.56
2023-04-25T12:12:53.323Z,100396.72
2023-04-25T12:15:26.113Z,100388.88
2023-04-25T12:17:54.781Z,100398.66
2023-04-25T12:20:32.576Z,100396.59
2023-04-25T12:22:59.160Z,100401.88
2023-04-25T12:25:43.005Z,100399.81
2023-04-25T12:28:24.912Z,100408.34
2023-04-25T12:30:58.812Z,100409.06
2023-04-25T12:33:27.136Z,100400.50
2023-04-25T12:35:54.611Z,100403.81
2023-04-25T12:38:28.352Z,100405.72
2023-04-25T12:40:55.523Z,100416.03
2023-04-25T12:43:22.862Z,100413.94
2023-04-25T12:45:53.747Z,100413.47
2023-04-25T12:48:21.147Z,100422.31
2023-04-25T12:50:50.785Z,100419.16
2023-04-25T12:53:18.053Z,100421.19
2023-04-25T12:55:46.974Z,100417.97
2023-04-25T12:58:14.718Z,100422.22
2023-04-25T13:00:41.284Z,100444.03
2023-04-25T13:03:08.001Z,100422.97
2023-04-25T13:05:34.698Z,100420.94
2023-04-25T13:08:01.291Z,100434.97
2023-04-25T13:10:27.878Z,100424.38
2023-04-25T13:12:54.490Z,100433.41
2023-04-25T13:15:21.474Z,100435.13
2023-04-25T13:17:48.129Z,100426.25
2023-04-25T13:20:15.955Z,100419.44
2023-04-25T13:22:43.337Z,100426.75
2023-04-25T13:25:09.909Z,100427.78
2023-04-25T13:27:38.089Z,100422.69
2023-04-25T13:30:08.308Z,100419.88
2023-04-25T13:32:37.091Z,100425.22
2023-04-25T13:35:12.028Z,100425.59
2023-04-25T13:37:39.528Z,100427.34
2023-04-25T13:40:10.134Z,100427.28
2023-04-25T13:42:37.399Z,100432.06
2023-04-25T13:45:04.068Z,100430.28
2023-04-25T13:47:31.515Z,100429.63
2023-04-25T13:49:58.272Z,100433.59
2023-04-25T13:52:28.364Z,100437.63
2023-04-25T13:54:54.989Z,100441.97
2023-04-25T13:57:21.722Z,100452.25
2023-04-25T13:59:48.235Z,100446.34
2023-04-25T14:02:14.819Z,100457.75
2023-04-25T14:04:42.073Z,100456.09
2023-04-25T14:07:09.470Z,100455.22
2023-04-25T14:09:36.222Z,100457.69
2023-04-25T14:12:03.168Z,100459.28
2023-04-25T14:14:29.820Z,100459.84
2023-04-25T14:16:58.050Z,100466.88
2023-04-25T14:19:25.350Z,100466.88
2023-04-25T14:21:51.940Z,100472.09
2023-04-25T14:24:18.501Z,100484.16
2023-04-25T14:26:45.071Z,100476.22
2023-04-25T14:29:13.111Z,100485.09
2023-04-25T14:31:41.224Z,100483.25
2023-04-25T14:34:08.460Z,100483.41
2023-04-25T14:36:36.130Z,100479.91
2023-04-25T14:39:02.884Z,100493.00
2023-04-25T14:41:29.433Z,100487.78
2023-04-25T14:43:57.823Z,100486.06
2023-04-25T14:46:24.615Z,100487.44
2023-04-25T14:48:51.686Z,100481.81
2023-04-25T14:51:18.290Z,100476.66
2023-04-25T14:53:45.199Z,100483.19
2023-04-25T14:56:11.740Z,100491.19
2023-04-25T14:58:39.895Z,100491.75
2023-04-25T15:01:07.805Z,100496.00
2023-04-25T15:03:34.621Z,100492.94
2023-04-25T15:06:01.469Z,100492.75
2023-04-25T15:08:28.065Z,100491.66
2023-04-25T15:10:54.598Z,100494.72
2023-04-25T15:13:21.307Z,100500.25
2023-04-25T15:15:52.229Z,100491.03
2023-04-25T15:18:19.323Z,100499.81
2023-04-25T15:20:45.855Z,100496.72
2023-04-25T15:23:12.461Z,100498.16
2023-04-25T15:25:38.971Z,100491.09
2023-04-25T15:28:05.672Z,100488.06
2023-04-25T15:30:32.214Z,100503.28
2023-04-25T15:32:58.897Z,100499.63
2023-04-25T15:35:25.567Z,100494.47
2023-04-25T15:37:52.232Z,100507.91
2023-04-25T15:40:18.815Z,100500.91
2023-04-25T15:42:51.700Z,100506.47
2023-04-25T15:45:20.079Z,100501.69
2023-04-25T15:47:46.761Z,100509.63
2023-04-25T15:50:17.402Z,100514.38
2023-04-25T15:52:43.990Z,100513.63
2023-04-25T15:55:11.162Z,100505.00
2023-04-25T15:57:37.834Z,100512.13
2023-04-25T16:00:17.427Z,100507.56
2023-04-25T16:02:45.136Z,100507.69
2023-04-25T16:05:13.155Z,100511.91
2023-04-25T16:07:41.633Z,100509.19
2023-04-25T16:10:09.252Z,100512.00
2023-04-25T16:12:36.297Z,100519.88
2023-04-25T16:15:03.345Z,100513.63
2023-04-25T16:17:30.181Z,100507.97
2023-04-25T16:19:57.093Z,100514.31
2023-04-25T16:22:23.672Z,100512.78
2023-04-25T16:24:50.419Z,100523.88
2023-04-25T16:27:17.003Z,100515.94
2023-04-25T16:29:43.606Z,100522.06
2023-04-25T16:32:11.559Z,100527.00
2023-04-25T16:34:38.076Z,100534.47
2023-04-25T16:37:04.829Z,100529.50
2023-04-25T16:39:31.342Z,100534.22
2023-04-25T16:41:57.936Z,100526.06
2023-04-25T16:44:24.616Z,100524.84
2023-04-25T16:46:51.311Z,100526.81
2023-04-25T16:49:17.844Z,100520.91
2023-04-25T16:51:46.386Z,100522.06
2023-04-25T16:54:13.205Z,100529.50
2023-04-25T16:56:39.759Z,100530.97
2023-04-25T16:59:06.395Z,100532.66
2023-04-25T17:01:33.058Z,100535.41
2023-04-25T17:04:00.043Z,100538.91
2023-04-25T17:06:27.207Z,100531.03
2023-04-25T17:08:54.008Z,100539.25
2023-04-25T17:11:20.824Z,100538.09
2023-04-25T17:13:47.347Z,100540.50
2023-04-25T17:16:16.761Z,100542.88
2023-04-25T17:18:43.939Z,100546.44
2023-04-25T17:21:10.602Z,100541.28
2023-04-25T17:23:37.563Z,100539.13
2023-04-25T17:26:04.084Z,100544.78
2023-04-25T17:28:31.056Z,100547.47
2023-04-25T17:30:58.722Z,100549.28
2023-04-25T17:33:27.084Z,100546.16
2023-04-25T17:35:54.330Z,100547.78
2023-04-25T17:38:21.097Z,100559.94
2023-04-25T17:40:47.896Z,100549.38
2023-04-25T17:43:14.465Z,100549.75
2023-04-25T17:45:41.241Z,100559.13
2023-04-25T17:48:08.483Z,100558.00
2023-04-25T17:50:35.204Z,100556.47
2023-04-25T17:53:03.685Z,100557.28
2023-04-25T17:55:30.722Z,100564.34
2023-04-25T17:57:57.251Z,100565.16
2023-04-25T18:00:23.800Z,100569.06
2023-04-25T18:02:52.071Z,100568.28
2023-04-25T18:05:19.376Z,100572.59
2023-04-25T18:07:46.273Z,100579.22
2023-04-25T18:10:12.873Z,100582.72
2023-04-25T18:12:39.487Z,100586.69
2023-04-25T18:15:06.990Z,100585.47
2023-04-25T18:17:34.912Z,100587.78
2023-04-25T18:20:01.915Z,100589.81
2023-04-25T18:22:28.884Z,100593.75
2023-04-25T18:24:55.524Z,100599.19
2023-04-25T18:27:22.078Z,100613.28
2023-04-25T18:29:48.651Z,100603.53
2023-04-25T18:32:15.227Z,100605.13
2023-04-25T18:34:43.794Z,100609.06
2023-04-25T18:37:12.985Z,100607.50
2023-04-25T18:39:40.644Z,100612.97
2023-04-25T18:42:08.384Z,100616.03
2023-04-25T18:44:39.812Z,100624.22
2023-04-25T18:47:10.330Z,100614.78
2023-04-25T18:49:37.628Z,100623.00
2023-04-25T18:52:04.962Z,100639.03
2023-04-25T18:54:32.162Z,100632.38
2023-04-25T18:57:00.980Z,100637.88
2023-04-25T18:59:27.777Z,100640.63
2023-04-25T19:01:54.416Z,100652.75
2023-04-25T19:04:21.464Z,100650.47
2023-04-25T19:06:51.066Z,100651.63
2023-04-25T19:09:18.348Z,100652.78
2023-04-25T19:11:44.870Z,100657.91
2023-04-25T19:14:13.115Z,100661.03
2023-04-25T19:16:39.713Z,100661.84
2023-04-25T19:19:07.285Z,100660.66
2023-04-25T19:21:33.883Z,100670.44
2023-04-25T19:24:01.960Z,100670.06
2023-04-25T19:26:28.551Z,100674.75
2023-04-25T19:29:05.951Z,100682.16
2023-04-25T19:31:34.169Z,100675.16
2023-04-25T19:34:00.757Z,100675.94
2023-04-25T19:36:28.438Z,100678.66
2023-04-25T19:38:54.970Z,100673.97
2023-04-25T19:41:21.467Z,100673.97
2023-04-25T19:43:48.151Z,100681.78
2023-04-25T19:46:14.774Z,100679.44
2023-04-25T19:48:41.520Z,100676.28
2023-04-25T19:51:09.067Z,100682.53
2023-04-25T19:53:35.683Z,100687.59
2023-04-25T19:56:02.258Z,100689.19
2023-04-25T19:58:29.768Z,100686.78
2023-04-25T20:00:57.627Z,100690.31
2023-04-25T20:03:24.533Z,100683.69
2023-04-25T20:05:51.243Z,100688.78
2023-04-25T20:08:17.751Z,100682.50
2023-04-25T20:10:44.311Z,100684.06
2023-04-25T20:13:11.725Z,100684.84
2023-04-25T20:15:38.492Z,100687.22
2023-04-25T20:18:05.036Z,100690.69
2023-04-25T20:20:31.673Z,100689.53
2023-04-25T20:22:58.189Z,100694.59
2023-04-25T20:25:25.036Z,100686.78
2023-04-25T20:27:51.573Z,100691.84
2023-04-25T20:30:18.518Z,100694.97
2023-04-25T20:32:45.262Z,100694.16
2023-04-25T20:35:13.128Z,100694.16
2023-04-25T20:37:39.659Z,100698.03
2023-04-25T20:40:09.437Z,100696.09
2023-04-25T20:42:36.316Z,100691.81
2023-04-25T20:45:07.573Z,100693.34
2023-04-25T20:47:34.847Z,100703.47
2023-04-25T20:50:03.996Z,100705.03
2023-04-25T20:52:31.889Z,100705.03
2023-04-25T20:54:58.695Z,100708.16
2023-04-25T20:57:25.851Z,100704.28
2023-04-25T20:59:52.901Z,100708.94
2023-04-25T21:02:20.049Z,100711.28
2023-04-25T21:04:46.716Z,100711.28
2023-04-25T21:07:13.874Z,100715.19
2023-04-25T21:09:41.773Z,100711.66
2023-04-25T21:12:08.431Z,100711.19
2023-04-25T21:14:34.959Z,100712.41
2023-04-25T21:17:01.636Z,100712.00
2023-04-25T21:19:28.741Z,100708.13
2023-04-25T21:21:55.278Z,100713.16
2023-04-25T21:24:21.975Z,100719.41
2023-04-25T21:26:48.512Z,100721.75
2023-04-25T21:29:15.031Z,100722.09
2023-04-25T21:31:42.317Z,100713.53
2023-04-25T21:34:08.936Z,100720.53
2023-04-25T21:36:35.539Z,100726.81
2023-04-25T21:39:02.361Z,100725.97
2023-04-25T21:41:28.964Z,100729.06
2023-04-25T21:43:55.925Z,100729.81
2023-04-25T21:46:24.490Z,100736.34
2023-04-25T21:48:51.570Z,100735.56
2023-04-25T21:51:18.699Z,100744.47
2023-04-25T21:53:45.222Z,100739.03
2023-04-25T21:56:12.427Z,100744.09
2023-04-25T21:58:39.057Z,100745.22
2023-04-25T22:01:05.598Z,100752.97
2023-04-25T22:03:32.837Z,100751.38
2023-04-25T22:05:59.589Z,100755.91
2023-04-25T22:08:26.097Z,100752.03
2023-04-25T22:10:55.047Z,100753.19
2023-04-25T22:13:22.633Z,100758.84
2023-04-25T22:15:49.280Z,100765.13
2023-04-25T22:18:16.438Z,100765.22
2023-04-25T22:20:44.098Z,100766.75
2023-04-25T22:23:12.185Z,100768.34
2023-04-25T22:25:38.808Z,100769.41
2023-04-25T22:28:05.410Z,100778.06
2023-04-25T22:30:32.404Z,100780.72
2023-04-25T22:32:59.007Z,100780.72
2023-04-25T22:35:25.647Z,100785.34
2023-04-25T22:37:52.390Z,100791.69
2023-04-25T22:40:19.004Z,100786.22
2023-04-25T22:42:45.586Z,100783.53
2023-04-25T22:45:12.239Z,100789.72
2023-04-25T22:47:39.662Z,100793.94
2023-04-25T22:50:08.585Z,100797.44
2023-04-25T22:52:35.378Z,100794.72
2023-04-25T22:55:04.913Z,100796.28
2023-04-25T22:57:31.447Z,100798.53
2023-04-25T22:59:58.028Z,100795.38
2023-04-25T23:02:28.004Z,100799.56
2023-04-25T23:04:55.004Z,100803.91
2023-04-25T23:07:21.664Z,100809.59
2023-04-25T23:09:48.298Z,100797.88
2023-04-25T23:12:18.040Z,100803.72
2023-04-25T23:14:48.689Z,100801.66
2023-04-25T23:17:15.228Z,100800.19
2023-04-25T23:19:42.216Z,100802.81
2023-04-25T23:22:09.449Z,100802.41
2023-04-25T23:24:39.160Z,100809.03
2023-04-25T23:27:05.762Z,100807.88
2023-04-25T23:29:34.087Z,100805.72
2023-04-25T23:32:03.614Z,100811.97
2023-04-25T23:34:33.284Z,100814.47
2023-04-25T23:37:01.532Z,100813.56
2023-04-25T23:39:28.306Z,100817.44
2023-04-25T23:41:54.843Z,100818.94
2023-04-25T23:44:21.402Z,100816.53
2023-04-25T23:46:48.436Z,100820.03
2023-04-25T23:49:15.153Z,100833.63
2023-04-25T23:51:41.685Z,100837.53
2023-04-25T23:54:08.428Z,100841.41
2023-04-25T23:56:34.982Z,100838.88
2023-04-25T23:59:01.511Z,100842.78
